Login
Access
Login with your mtb-forum.it nickname and password.


You do not have an account? Sign up here for free

mattdav

Last training unit 07/12/2017
1
Followers
23 361 Km
itineraries
198 669 m
of total vertical gain
1215
hours of riding
19.27 Km/h
average speed
106
average HR


07/12/2017 Show to everybody otto di livergnano 47.25 Km 887 m 02:53:15 16.36 Km\h Tarmac sl 4
03/12/2017 Show to everybody Giro dei colli 37.18 Km 460 m 02:19:06 16.04 Km\h Tarmac sl 4
30/11/2017 Show to everybody Vignale Ca del Vento 36.59 Km 576 m 01:38:08 22.37 Km\h Tarmac sl 4
19/11/2017 Show to everybody Colline Osteria grande e Idice 39.77 Km 822 m 02:42:18 14.7 Km\h Tarmac sl 4
18/11/2017 Show to everybody serra secca livergnano 50.29 Km 839 m 02:40:54 18.75 Km\h Tarmac sl 4
16/11/2017 Show to everybody Castel San Pietro Poggio Piccolo 42.12 Km 154 m 01:17:58 32.42 Km\h Tarmac sl 4
12/11/2017 Show to everybody Giro di Varignana 43.42 Km 624 m 02:40:52 16.19 Km\h Tarmac sl 4
11/11/2017 Show to everybody livergnano 57.7 Km 892 m 03:05:53 18.62 Km\h Tarmac sl 4
02/11/2017 Show to everybody pulce 32.53 Km 422 m 02:15:05 14.45 Km\h Tarmac sl 4
01/11/2017 Show to everybody formaggiaio terra secca livergnano 49.45 Km 884 m 02:53:58 17.05 Km\h Tarmac sl 4
31/10/2017 Show to everybody Vignale San Clemente 56.66 Km 1294 m 03:10:51 17.81 Km\h Tarmac sl 4
29/10/2017 Show to everybody Prati di Mugnano 63.52 Km 956 m 03:49:18 16.62 Km\h Tarmac sl 4
28/10/2017 Show to everybody lungo fiume 41.26 Km 184 m 02:24:23 17.15 Km\h Tarmac sl 4
26/10/2017 Show to everybody pista cross calvanella 43.04 Km 462 m 01:33:57 27.49 Km\h Tarmac sl 4
24/10/2017 Show to everybody Quinzano 61.18 Km 666 m 02:15:28 27.1 Km\h Tarmac sl 4
21/10/2017 Show to everybody vignale via calvanella via della rocca 52.04 Km 1022 m 03:10:22 16.4 Km\h Tarmac sl 4
20/10/2017 Show to everybody vignale flaminia minor 33.81 Km 606 m 01:54:13 17.76 Km\h Tarmac sl 4
15/10/2017 Show to everybody pulce 33.12 Km 147 m 01:40:31 19.77 Km\h Tarmac sl 4
14/10/2017 Show to everybody vignale via galvanella 46.46 Km 990 m 02:35:31 17.92 Km\h Tarmac sl 4
12/10/2017 Show to everybody Formaggiaio e Calanchi 38.46 Km 648 m 01:52:39 20.48 Km\h Tarmac sl 4
10/10/2017 Show to everybody Rifugio Lancia 50.69 Km 1568 m 03:50:28 13.2 Km\h Tarmac sl 4
07/10/2017 Show to everybody colline Mercatale 38.83 Km 643 m 02:03:07 18.93 Km\h Tarmac sl 4
03/10/2017 Show to everybody Castel Guelfo Toscanella 61.24 Km 212 m 02:08:10 28.67 Km\h Tarmac sl 4
29/09/2017 Show to everybody Anello Ridracoli 46.18 Km 1521 m 03:26:59 13.39 Km\h Tarmac sl 4
26/09/2017 Show to everybody Torre arabella 52.59 Km 502 m 02:03:42 25.51 Km\h Tarmac sl 4
23/09/2017 Show to everybody vignale Palesio 43.61 Km 736 m 02:17:58 18.97 Km\h Tarmac sl 4
17/09/2017 Show to everybody Raduno Castenaso 55.21 Km 270 m 02:17:27 24.1 Km\h Tarmac sl 4
14/09/2017 Show to everybody primo pezzo vignale 25.81 Km 285 m 01:28:22 17.53 Km\h Tarmac sl 4
13/09/2017 Show to everybody Quinzano 61.13 Km 658 m 02:12:57 27.59 Km\h Tarmac sl 4
08/09/2017 Show to everybody Quinzano 60.94 Km 655 m 02:09:27 28.25 Km\h Tarmac sl 4
04/09/2017 Show to everybody vignale e calanchi 34.86 Km 747 m 01:42:40 20.37 Km\h Tarmac sl 4
31/08/2017 Show to everybody Anello di Ridracoli 41.92 Km 1277 m 03:48:18 11.02 Km\h Tarmac sl 4
27/08/2017 Show to everybody Raduno Altedo 72.49 Km 108 m 03:38:44 19.88 Km\h Tarmac sl 4
26/08/2017 Show to everybody Colline Monterenzio 61.01 Km 1284 m 03:52:59 15.71 Km\h Tarmac sl 4
23/08/2017 Show to everybody quinzano 61.87 Km 661 m 02:41:32 22.98 Km\h Tarmac sl 4
20/08/2017 Show to everybody Colline Osteria Grande 44.51 Km 701 m 02:57:34 15.04 Km\h Tarmac sl 4
18/08/2017 Show to everybody Pinarella 56.07 Km 46 m 02:21:13 23.82 Km\h Tarmac sl 4
16/08/2017 Show to everybody Cesenatico Badia San Paolo Rocco freddo 64.37 Km 466 m 03:03:45 21.02 Km\h Tarmac sl 4
10/08/2017 Show to everybody Cesenatico Longiano Roccofreddo 65.14 Km 430 m 03:04:03 21.24 Km\h Tarmac sl 4
08/08/2017 Show to everybody Pinarella Longiano 41.02 Km 199 m 01:58:34 20.76 Km\h Tarmac sl 4
07/08/2017 Show to everybody Pinarella Longiano Roccofreddo 65.74 Km 214 m 03:09:30 20.81 Km\h Tarmac sl 4
02/08/2017 Show to everybody montecreto 35.23 Km 1123 m 02:51:13 12.35 Km\h Tarmac sl 4
30/07/2017 Show to everybody brento prati di mugnano discesa ganzole 60.92 Km 1040 m 03:46:28 16.14 Km\h Tarmac sl 4
29/07/2017 Show to everybody Crinale Badessa S andrea 45.87 Km 790 m 03:07:27 14.68 Km\h Tarmac sl 4
27/07/2017 Show to everybody parco talon prati di mugnano brento 63.4 Km 819 m 03:42:29 17.1 Km\h Tarmac sl 4
23/07/2017 Show to everybody fondo valle bivio loiano monzuno 66.11 Km 385 m 02:44:52 24.06 Km\h Tarmac sl 4
21/07/2017 Show to everybody Giro degli eroi 33.42 Km 1257 m 02:44:20 12.2 Km\h Tarmac sl 4
17/07/2017 Show to everybody gaibola e calanchi 25.02 Km 459 m 01:51:11 13.5 Km\h Tarmac sl 4
13/07/2017 Show to everybody Riva del garda rifugio pernici 44.66 Km 1555 m 03:35:08 12.46 Km\h Tarmac sl 4
12/07/2017 Show to everybody Passo Nota tremalzo 40.14 Km 1497 m 03:09:58 12.68 Km\h Tarmac sl 4
09/07/2017 Show to everybody Raduno Granarolo Baricella 62.96 Km 118 m 02:44:14 23 Km\h Tarmac sl 4
08/07/2017 Show to everybody Pieve del pino toboga di Casalecchio 47.59 Km 410 m 03:09:40 15.05 Km\h Tarmac sl 4
05/07/2017 Show to everybody salita formaggiaio e calanchi 35.21 Km 645 m 01:39:23 21.26 Km\h Tarmac sl 4
30/06/2017 Show to everybody via della rocca e monte delle formiche 50.27 Km 848 m 02:52:33 17.48 Km\h Tarmac sl 4
25/06/2017 Show to everybody Raduno Marco Polo 70.17 Km 333 m 03:33:37 19.71 Km\h Tarmac sl 4
24/06/2017 Show to everybody ciclabile e via sostegno 61.55 Km 128 m 03:33:41 17.28 Km\h Tarmac sl 4
04/06/2017 Show to everybody Borgonuovo Badolo 60.32 Km 589 m 02:58:08 20.32 Km\h Tarmac sl 4
03/06/2017 Show to everybody lungo fiume 41.05 Km 187 m 02:21:06 17.45 Km\h Tarmac sl 4
31/05/2017 Show to everybody pulce 54.78 Km 486 m 02:23:19 22.93 Km\h Tarmac sl 4
30/05/2017 Show to everybody camionabile calanchi gaibola discesa farneto 42.2 Km 846 m 01:57:50 21.49 Km\h Tarmac sl 4
28/05/2017 Show to everybody ozzano bisano 54 Km 340 m 02:02:34 26.43 Km\h Tarmac sl 4
23/05/2017 Show to everybody ponale 21.19 Km 679 m 02:02:28 10.38 Km\h Tarmac sl 4
18/05/2017 Show to everybody monte Bibele 54.04 Km 489 m 02:09:16 25.08 Km\h Tarmac sl 4
14/05/2017 Show to everybody Raduno Imola 56.17 Km 358 m 02:32:56 22.04 Km\h Tarmac sl 4
12/05/2017 Show to everybody Pianoro Firenze 108.88 Km 1807 m 05:58:06 18.24 Km\h Tarmac sl 4
11/05/2017 Show to everybody quinzano 60.63 Km 615 m 02:03:30 29.45 Km\h Tarmac sl 4
06/05/2017 Show to everybody livergnano alla rovescio 51.75 Km 799 m 02:59:21 17.31 Km\h Tarmac sl 4
05/05/2017 Show to everybody Zena Ca di Pippo 41.07 Km 459 m 01:44:04 23.68 Km\h Tarmac sl 4
01/05/2017 Show to everybody ginestre e giro dei leoni 53.16 Km 717 m 03:06:16 17.12 Km\h Tarmac sl 4
30/04/2017 Show to everybody Pianoro Vecchio Botteghino 37.24 Km 518 m 01:59:35 18.68 Km\h Tarmac sl 4
29/04/2017 Show to everybody Vignale Ca del Vento Settefonti 40.57 Km 842 m 02:50:40 14.26 Km\h Tarmac sl 4
23/04/2017 Show to everybody Asciano Gaiole in Chianti 62.1 Km 1454 m 04:11:23 14.82 Km\h Tarmac sl 4
22/04/2017 Show to everybody Bonconvento Asciano 88.79 Km 1800 m 05:32:28 16.02 Km\h Tarmac sl 4
21/04/2017 Show to everybody Gaiole in Chianti Bonconvento 64.9 Km 954 m 03:34:58 18.11 Km\h Tarmac sl 4
18/04/2017 Show to everybody salita formaggiaio e livergnano 51.55 Km 793 m 03:19:22 15.52 Km\h Tarmac sl 4
17/04/2017 Show to everybody giro della palestrina 16.89 Km 298 m 01:12:57 13.89 Km\h Tarmac sl 4
15/04/2017 Show to everybody gaibola calanchi eremo 30.68 Km 736 m 02:05:41 14.65 Km\h Tarmac sl 4
14/04/2017 Show to everybody Castel San Pietro 44.38 Km 139 m 02:05:40 21.19 Km\h Tarmac sl 4
13/04/2017 Show to everybody Castel de Britti Quaderna Monte Calderaro 47.79 Km 1016 m 03:02:02 15.75 Km\h Tarmac sl 4
09/04/2017 Show to everybody Raduno Pian di Macina 40.57 Km 551 m 02:05:23 19.41 Km\h Tarmac sl 4
08/04/2017 Show to everybody quinzano 61.57 Km 763 m 02:57:23 20.83 Km\h Tarmac sl 4
06/04/2017 Show to everybody Monterenzio Raticosa 34.72 Km 981 m 02:58:37 11.66 Km\h Tarmac sl 4
03/04/2017 Show to everybody vignale flaminia minorr 41.27 Km 647 m 02:29:11 16.6 Km\h Tarmac sl 4
02/04/2017 Show to everybody Campionato italiano Russi 73.46 Km 438 m 03:13:51 22.74 Km\h Tarmac sl 4
30/03/2017 Show to everybody Valle dell Idice la Palazza 64.96 Km 829 m 02:49:58 22.93 Km\h Tarmac sl 4
26/03/2017 Show to everybody Castel Guelfo Toscanella 53.81 Km 281 m 02:07:06 25.4 Km\h Tarmac sl 4
25/03/2017 Show to everybody MonteCatone 66.56 Km 604 m 03:02:22 21.9 Km\h Tarmac sl 4
19/03/2017 Show to everybody vignale 30.17 Km 455 m 02:03:50 14.62 Km\h Tarmac sl 4
17/03/2017 Show to everybody montiano 29.48 Km 300 m 02:20:39 12.58 Km\h Tarmac sl 4
16/03/2017 Show to everybody cala violina 41.08 Km 769 m 03:09:33 13 Km\h Tarmac sl 4
15/03/2017 Show to everybody giro 1 32.42 Km 582 m 02:04:38 15.61 Km\h Tarmac sl 4
12/03/2017 Show to everybody Castel Guelfo 53.03 Km 170 m 02:10:01 24.47 Km\h Tarmac sl 4
11/03/2017 Show to everybody quinzano 59.57 Km 865 m 02:59:46 19.88 Km\h Tarmac sl 4
09/03/2017 Show to everybody zena 40.37 Km 434 m 01:38:16 24.65 Km\h Tarmac sl 4
05/03/2017 Show to everybody primo raduno di stagione 40.52 Km 222 m 02:01:25 20.02 Km\h Tarmac sl 4
02/03/2017 Show to everybody Zena 40.39 Km 374 m 01:40:17 24.17 Km\h Tarmac sl 4
26/02/2017 Show to everybody Poggio Piccolo Liano 51.32 Km 433 m 02:30:57 20.4 Km\h Tarmac sl 4
18/02/2017 Show to everybody castel guelfo 57.7 Km 301 m 02:48:54 20.5 Km\h Tarmac sl 4
16/02/2017 Show to everybody pieve del pino badolo e ginestre 49.85 Km 794 m 03:14:22 15.39 Km\h Tarmac sl 4
14/02/2017 Show to everybody vignale 27.09 Km 383 m 01:32:35 17.55 Km\h Tarmac sl 4
12/02/2017 Show to everybody lungo fiume mezza vignale 27.66 Km 397 m 01:55:28 14.37 Km\h Tarmac sl 4
29/01/2017 Show to everybody lungo fiume 22.75 Km 175 m 01:34:44 14.41 Km\h Tarmac sl 4
20/01/2017 Show to everybody strada bianca 22.17 Km 191 m 01:10:08 18.97 Km\h Tarmac sl 4
08/01/2017 Show to everybody Ozzano e Palesio 28.11 Km 389 m 01:52:44 14.96 Km\h Tarmac sl 4
02/01/2017 Show to everybody Salita pasdtore e livergnano 49.73 Km 1060 m 03:31:13 14.13 Km\h Tarmac sl 4
31/12/2016 Show to everybody giro parchi 35.99 Km 691 m 02:35:54 13.85 Km\h Tarmac sl 4
26/12/2016 Show to everybody ciclabili e san luca 34.33 Km 633 m 02:28:06 13.91 Km\h Tarmac sl 4
24/12/2016 Show to everybody monte armato vignale 30.51 Km 485 m 02:14:14 13.64 Km\h Tarmac sl 4
23/12/2016 Show to everybody prima parte vignale 26.17 Km 386 m 01:30:29 17.36 Km\h Tarmac sl 4
09/12/2016 Show to everybody vignale 30.7 Km 431 m 02:09:42 14.2 Km\h Tarmac sl 4
03/12/2016 Show to everybody strada romana 27.37 Km 411 m 01:53:26 14.48 Km\h Tarmac sl 4
02/12/2016 Show to everybody vignale 26.9 Km 378 m 01:29:49 17.97 Km\h Tarmac sl 4
29/11/2016 Show to everybody strada bianca 21.68 Km 220 m 01:14:37 17.43 Km\h Tarmac sl 4
26/11/2016 Show to everybody Monte San Pietro Varignana 33.49 Km 494 m 02:10:14 15.43 Km\h Tarmac sl 4
13/11/2016 Show to everybody camionabile vignale 26.86 Km 301 m 01:51:27 14.46 Km\h Tarmac sl 4
10/11/2016 Show to everybody Giro dei leoni 50.87 Km 554 m 03:09:32 16.1 Km\h Tarmac sl 4
08/11/2016 Show to everybody Gaibola 16.95 Km 263 m 01:11:38 14.2 Km\h Tarmac sl 4
04/11/2016 Show to everybody Vignale 27.83 Km 252 m 01:34:57 17.59 Km\h Tarmac sl 4
01/11/2016 Show to everybody camionabile vignale 30.09 Km 420 m 01:48:00 16.72 Km\h Tarmac sl 4
30/10/2016 Show to everybody raduno e lungo fiume 32.03 Km 86 m 02:02:02 15.75 Km\h Tarmac sl 4
29/10/2016 Show to everybody poggio 42.85 Km 191 m 01:48:45 23.64 Km\h Tarmac sl 4
22/10/2016 Show to everybody poggio piccolo 43.05 Km 243 m 01:48:57 23.71 Km\h Tarmac sl 4
16/10/2016 Show to everybody giro dei colli 42.97 Km 472 m 02:46:15 15.51 Km\h Tarmac sl 4
12/10/2016 Show to everybody poggio 42.37 Km 132 m 01:35:50 26.52 Km\h Tarmac sl 4
06/10/2016 Show to everybody riva del garda 29.42 Km 351 m 02:16:31 12.93 Km\h Tarmac sl 4
01/10/2016 Show to everybody fagianometro e discesa della balena 32.05 Km 370 m 02:02:41 15.68 Km\h Tarmac sl 4
27/09/2016 Show to everybody san luca 35.69 Km 267 m 02:37:07 13.63 Km\h Tarmac sl 4
25/09/2016 Show to everybody raduno san martino in pedriolo 60.32 Km 467 m 02:41:24 22.42 Km\h Tarmac sl 4
24/09/2016 Show to everybody castel guelfo 51.58 Km 229 m 01:58:37 26.09 Km\h Tarmac sl 4
22/09/2016 Show to everybody fondo valle loiano 73.55 Km 1028 m 03:44:58 19.62 Km\h Tarmac sl 4
18/09/2016 Show to everybody raduno castenaso 24.68 Km 182 m 01:04:40 22.9 Km\h Tarmac sl 4
13/09/2016 Show to everybody raticosa 93.42 Km 1438 m 04:52:34 19.16 Km\h Tarmac sl 4
11/09/2016 Show to everybody rauno borgo 14.86 Km 153 m 00:45:12 19.73 Km\h Tarmac sl 4
11/09/2016 Show to everybody raduno borgo panigale 17.38 Km 207 m 00:56:03 18.6 Km\h Tarmac sl 4
10/09/2016 Show to everybody calanchi da mercatale 25.3 Km 374 m 02:09:12 11.75 Km\h Tarmac sl 4
08/09/2016 Show to everybody Dozza 51.09 Km 423 m 02:27:39 20.76 Km\h Tarmac sl 4
06/09/2016 Show to everybody quinzano 62.35 Km 972 m 02:54:31 21.44 Km\h Tarmac sl 4
04/09/2016 Show to everybody citta di castello campionato italiano 57.15 Km 843 m 02:51:32 19.99 Km\h Tarmac sl 4
03/09/2016 Show to everybody lungo fiume 25.06 Km 129 m 01:41:33 14.81 Km\h Tarmac sl 4
01/09/2016 Show to everybody liano 42.92 Km 480 m 01:49:08 23.6 Km\h Tarmac sl 4
28/08/2016 Show to everybody raduno uips 61.88 Km 820 m 02:40:40 23.11 Km\h Tarmac sl 4
27/08/2016 Show to everybody Via del Pilastrino Quaderna palesio 34.09 Km 451 m 02:27:39 13.85 Km\h Tarmac sl 4
25/08/2016 Show to everybody quinzano san benedetto 60.16 Km 857 m 02:57:11 20.37 Km\h Tarmac sl 4
23/08/2016 Show to everybody quinzano 61.19 Km 789 m 02:41:38 22.71 Km\h Tarmac sl 4
14/08/2016 Show to everybody Tagliata Bertinoro 68.33 Km 624 m 02:52:57 23.7 Km\h Tarmac sl 4
12/08/2016 Show to everybody giro pianura 41.2 Km 237 m 01:43:05 23.98 Km\h Tarmac sl 4
09/08/2016 Show to everybody Tagliata Verucchio 77.77 Km 845 m 03:26:46 22.57 Km\h Tarmac sl 4
07/08/2016 Show to everybody san benedetto monte fredente 84.7 Km 735 m 03:04:48 27.5 Km\h Tarmac sl 4
03/08/2016 Show to everybody Cesenatico Montiano Rocco Freddo 64.96 Km 415 m 03:12:21 20.26 Km\h Tarmac sl 4
02/08/2016 Show to everybody Tagliata di Cervia Rocco Freddo 61.74 Km 397 m 02:44:44 22.49 Km\h Tarmac sl 4
21/07/2016 Show to everybody viletta barrea monte di giove 83.66 Km 1127 m 04:37:53 18.06 Km\h Tarmac sl 4
19/07/2016 Show to everybody fiume 37.68 Km 129 m 02:13:32 16.93 Km\h Tarmac sl 4
17/07/2016 Show to everybody raduno park hotel bivio loiano monzuno 67.24 Km 1025 m 02:51:09 23.57 Km\h Tarmac sl 4
16/07/2016 Show to everybody quinzano 61.51 Km 624 m 02:45:25 22.31 Km\h Tarmac sl 4
14/07/2016 Show to everybody giro fiume 24.2 Km 82 m 01:25:32 16.97 Km\h Tarmac sl 4
10/07/2016 Show to everybody raduno bici cult 40.02 Km 129 m 01:45:25 22.78 Km\h Tarmac sl 4
07/07/2016 Show to everybody Pieve del Pino Badolo Monzuno 71 Km 974 m 03:53:01 18.28 Km\h Tarmac sl 4
03/07/2016 Show to everybody Raduno Sasso Marconi 58.72 Km 331 m 02:42:33 21.67 Km\h Tarmac sl 4
30/06/2016 Show to everybody quinzano 61.5 Km 621 m 02:38:13 23.32 Km\h Tarmac sl 4
28/06/2016 Show to everybody colli 46.1 Km 345 m 02:06:02 21.95 Km\h Tarmac sl 4
23/06/2016 Show to everybody vetta quinzano 63.21 Km 618 m 02:44:17 23.09 Km\h Tarmac sl 4
15/06/2016 Show to everybody camionabile 27.13 Km 255 m 01:47:57 15.08 Km\h Tarmac sl 4
12/06/2016 Show to everybody raduno medicina 47.06 Km 122 m 02:02:53 22.98 Km\h Tarmac sl 4
11/06/2016 Show to everybody fondo valle riosto 64.01 Km 497 m 02:52:55 22.21 Km\h Tarmac sl 4
07/06/2016 Show to everybody pieve del pino Badolo 57.76 Km 758 m 03:14:15 17.84 Km\h Tarmac sl 4
31/05/2016 Show to everybody fondo valle 55.19 Km 350 m 02:50:20 19.44 Km\h Tarmac sl 4
28/05/2016 Show to everybody calanchi 26.22 Km 453 m 02:07:15 12.36 Km\h Tarmac sl 4
26/05/2016 Show to everybody San Lazzaro Cervia 193.52 Km 107 m 04:06:19 47.14 Km\h Tarmac sl 4
24/05/2016 Show to everybody Liano Monte calderaro 49.89 Km 718 m 02:46:13 18.01 Km\h Tarmac sl 4
08/05/2016 Show to everybody raduno anzola 45.97 Km 90 m 02:37:10 17.55 Km\h Tarmac sl 4
07/05/2016 Show to everybody leoni prati di mugnano parco talon 55.7 Km 614 m 04:14:18 13.14 Km\h Tarmac sl 4
30/04/2016 Show to everybody vignale flamiaminor 31.71 Km 616 m 02:43:23 11.65 Km\h Tarmac sl 4
28/04/2016 Show to everybody colli 46.71 Km 366 m 02:12:24 21.17 Km\h Tarmac sl 4
22/04/2016 Show to everybody torrearabella bisano 53.79 Km 564 m 02:22:14 22.69 Km\h Tarmac sl 4
20/04/2016 Show to everybody savazza torre arabella 51.17 Km 478 m 02:29:57 20.48 Km\h Tarmac sl 4
19/04/2016 Show to everybody prima parte vignale 30.15 Km 290 m 02:12:44 13.63 Km\h Tarmac sl 4
16/04/2016 Show to everybody liano 42.56 Km 370 m 02:08:42 19.84 Km\h Tarmac sl 4
12/04/2016 Show to everybody torre arabella 50.86 Km 457 m 02:09:08 23.63 Km\h Tarmac sl 4
10/04/2016 Show to everybody castel guelfo 54.41 Km 98 m 02:12:23 24.66 Km\h Tarmac sl 4
05/04/2016 Show to everybody fondo valle monzuno 70.56 Km 611 m 03:33:29 19.83 Km\h Tarmac sl 4
03/04/2016 Show to everybody quinzano 61.36 Km 654 m 03:01:38 20.27 Km\h Tarmac sl 4
29/03/2016 Show to everybody pieve del pino badolo 59.35 Km 801 m 03:39:37 16.22 Km\h Tarmac sl 4
28/03/2016 Show to everybody castel guelfo toscanella 67.24 Km 217 m 02:54:08 23.17 Km\h Tarmac sl 4
26/03/2016 Show to everybody quinzano 61.06 Km 655 m 03:07:33 19.53 Km\h Tarmac sl 4
20/03/2016 Show to everybody roccastrada 117.1 Km 1003 m 05:33:19 21.08 Km\h Tarmac sl 4
19/03/2016 Show to everybody castiglione della pescaia 89.1 Km 442 m 04:02:07 22.08 Km\h Tarmac sl 4
18/03/2016 Show to everybody Sassetta Monte verdi 102.11 Km 614 m 04:48:44 21.22 Km\h Tarmac sl 4
15/03/2016 Show to everybody camionabile 22.84 Km 119 m 01:28:39 15.46 Km\h Tarmac sl 4
12/03/2016 Show to everybody liano 51.31 Km 424 m 02:35:14 19.83 Km\h Tarmac sl 4
10/03/2016 Show to everybody castel san pietro 31.97 Km 108 m 01:15:27 25.42 Km\h Tarmac sl 4
06/03/2016 Show to everybody raduno castenaso 24.46 Km 97 m 01:13:06 20.08 Km\h Tarmac sl 4
02/03/2016 Show to everybody siepe lunga monte donato 30.04 Km 394 m 01:49:56 16.4 Km\h Tarmac sl 4
01/03/2016 Show to everybody castel guelfo 52.75 Km 140 m 02:15:23 23.38 Km\h Tarmac sl 4
23/02/2016 Show to everybody poggio piccolo 42.57 Km 105 m 01:40:20 25.46 Km\h Tarmac sl 4
20/02/2016 Show to everybody formaggiaio e zula 38.64 Km 565 m 02:38:53 14.59 Km\h Tarmac sl 4
19/02/2016 Show to everybody vignale bigattaio 26 Km 327 m 01:35:10 16.4 Km\h Tarmac sl 4
11/02/2016 Show to everybody gaibola 15.94 Km 292 m 01:15:32 12.66 Km\h Tarmac sl 4
08/02/2016 Show to everybody martiri croara 15.61 Km 155 m 01:03:50 14.68 Km\h Tarmac sl 4
06/02/2016 Show to everybody gaibola mercatale 22.26 Km 333 m 01:44:05 12.83 Km\h Tarmac sl 4
04/02/2016 Show to everybody strada bianca 22 Km 152 m 01:10:33 18.71 Km\h Tarmac sl 4
26/01/2016 Show to everybody camionabile 22.78 Km 146 m 01:16:06 17.96 Km\h Tarmac sl 4
23/01/2016 Show to everybody strada bianca vignale 27.09 Km 265 m 01:52:59 14.39 Km\h Tarmac sl 4
16/01/2016 Show to everybody siepelunga san luca 41.29 Km 645 m 03:05:40 13.34 Km\h Tarmac sl 4
15/01/2016 Show to everybody Pastore 27.56 Km 314 m 01:35:48 17.26 Km\h Tarmac sl 4
09/01/2016 Show to everybody Cava 25.64 Km 223 m 01:59:33 12.87 Km\h Tarmac sl 4
31/12/2015 Show to everybody lungo fiume 24.09 Km 130 m 01:35:23 15.15 Km\h Tarmac sl 4
29/12/2015 Show to everybody Brento Leoni 53.91 Km 574 m 03:26:22 15.67 Km\h Tarmac sl 4
27/12/2015 Show to everybody mercatale lungo fiume 35.88 Km 152 m 02:13:18 16.15 Km\h Tarmac sl 4
26/12/2015 Show to everybody Santo Stefano a San Luca 32.88 Km 273 m 02:29:39 13.18 Km\h Tarmac sl 4
24/12/2015 Show to everybody alpe di monghidoro 61.92 Km 899 m 02:48:43 22.02 Km\h Tarmac sl 4
19/12/2015 Show to everybody idice 23.79 Km 141 m 01:32:04 15.5 Km\h Tarmac sl 4
17/12/2015 Show to everybody livergnano 52.43 Km 860 m 03:46:35 13.88 Km\h Tarmac sl 4
10/12/2015 Show to everybody lungo idice 24.05 Km 183 m 01:22:38 17.47 Km\h Tarmac sl 4
08/12/2015 Show to everybody eremo mercatale 30.41 Km 363 m 02:02:47 14.86 Km\h Tarmac sl 4
28/11/2015 Show to everybody fiume 23.07 Km 110 m 01:34:09 14.7 Km\h Tarmac sl 4
26/11/2015 Show to everybody pratii di mugnano 61.11 Km 653 m 03:59:29 15.31 Km\h Tarmac sl 4
19/11/2015 Show to everybody variante camionabile 23.13 Km 98 m 01:27:59 15.77 Km\h Tarmac sl 4
17/11/2015 Show to everybody San Lazzaro fiume 25.87 Km 106 m 01:30:35 17.14 Km\h Tarmac sl 4
12/11/2015 Show to everybody colle della guardia san luca 31.72 Km 301 m 02:11:56 14.42 Km\h Tarmac sl 4
09/11/2015 Show to everybody dino poggio 40.18 Km 130 m 01:28:39 27.19 Km\h Tarmac sl 4
07/11/2015 Show to everybody lungo fiume castenaso 32.99 Km 93 m 02:28:15 13.35 Km\h Tarmac sl 4
05/11/2015 Show to everybody brento prati di mugnano casalecchio 63.16 Km 608 m 04:24:55 14.31 Km\h Tarmac sl 4
05/11/2015 Show to everybody brento 63.16 Km 608 m 04:24:55 14.31 Km\h Tarmac sl 4
02/11/2015 Show to everybody dino 40.13 Km 102 m 01:33:04 25.87 Km\h Tarmac sl 4
31/10/2015 Show to everybody San Anna 37.74 Km 591 m 02:55:18 12.92 Km\h Tarmac sl 4
30/10/2015 Show to everybody dozza 50.34 Km 412 m 02:27:49 20.43 Km\h Tarmac sl 4
24/10/2015 Show to everybody brento 24.91 Km 488 m 01:57:59 12.67 Km\h Tarmac sl 4
22/10/2015 Show to everybody livergnano 53 Km 802 m 03:37:39 14.61 Km\h Tarmac sl 4
20/10/2015 Show to everybody poggio 40.35 Km 110 m 01:31:52 26.36 Km\h Tarmac sl 4
18/10/2015 Show to everybody castel di britti 27.82 Km 97 m 01:52:21 14.86 Km\h Tarmac sl 4
17/10/2015 Show to everybody lungo fiume ponterivabella 59.74 Km 242 m 03:33:20 16.8 Km\h Tarmac sl 4
15/10/2015 Show to everybody mercatale 26.8 Km 276 m 01:49:13 14.72 Km\h Tarmac sl 4
12/10/2015 Show to everybody san luca bregoli 32.75 Km 289 m 02:24:38 13.58 Km\h Tarmac sl 4
11/10/2015 Show to everybody Mongardino 62.81 Km 478 m 03:22:45 18.59 Km\h Tarmac sl 4
09/10/2015 Show to everybody gaibola 17.52 Km 302 m 01:31:52 11.44 Km\h Tarmac sl 4
07/10/2015 Show to everybody via siepe lunga monte donato eremo 31.58 Km 476 m 02:29:34 12.67 Km\h Tarmac sl 4
05/10/2015 Show to everybody castel guelfo 51.42 Km 107 m 01:57:22 26.29 Km\h Tarmac sl 4
27/09/2015 Show to everybody guelfo 61.05 Km 93 m 02:22:52 25.64 Km\h Tarmac sl 4
26/09/2015 Show to everybody villa ghigi 38.13 Km 564 m 02:57:54 12.86 Km\h Tarmac sl 4
22/09/2015 Show to everybody bivio colli 46.76 Km 380 m 01:58:19 23.71 Km\h Tarmac sl 4
19/09/2015 Show to everybody stradelli 53.95 Km 183 m 02:03:26 26.23 Km\h Tarmac sl 4
17/09/2015 Show to everybody bivio loiano monzuno 65.8 Km 392 m 03:17:05 20.03 Km\h Tarmac sl 4
13/09/2015 Show to everybody poggio 47.06 Km 169 m 01:56:19 24.27 Km\h Tarmac sl 4
12/09/2015 Show to everybody calanchi 25.33 Km 340 m 02:05:40 12.09 Km\h Tarmac sl 4
10/09/2015 Show to everybody bologna cervia 97.85 Km 124 m 03:45:57 25.98 Km\h Tarmac sl 4
08/09/2015 Show to everybody raticosa futa firenze 109.29 Km 1715 m 06:44:32 16.21 Km\h Tarmac sl 4
08/09/2015 Show to everybody San Lazzaro 100.48 Km 2350 m 04:52:00 20.65 Km\h Tarmac sl 4
06/09/2015 Show to everybody borgo panigale e colli bolognesi 42.49 Km 445 m 02:26:04 17.45 Km\h Tarmac sl 4
05/09/2015 Show to everybody pulce ciclismo 26.04 Km 241 m 01:43:35 15.08 Km\h Tarmac sl 4
01/09/2015 Show to everybody Col 47.76 Km 376 m 02:16:11 21.04 Km\h Tarmac sl 4
30/08/2015 Show to everybody Altedo 67.92 Km 114 m 02:46:08 24.53 Km\h Tarmac sl 4
29/08/2015 Show to everybody Vignale 30.35 Km 362 m 02:08:30 14.17 Km\h Tarmac sl 4
27/08/2015 Show to everybody Colli 45.88 Km 381 m 01:55:07 23.91 Km\h Tarmac sl 4
25/08/2015 Show to everybody Guelfo 50.88 Km 102 m 01:51:09 27.47 Km\h Tarmac sl 4
22/08/2015 Show to everybody castel g 54.02 Km 161 m 02:07:54 25.34 Km\h Tarmac sl 4
18/08/2015 Show to everybody panoramica and e rirorno 38.46 Km 747 m 02:13:20 17.31 Km\h Tarmac sl 4
13/08/2015 Show to everybody panoramica 39.81 Km 624 m 02:10:20 18.33 Km\h Tarmac sl 4
11/08/2015 Show to everybody gradara 48.85 Km 675 m 02:37:27 18.62 Km\h Tarmac sl 4
03/08/2015 Show to everybody arabella 51.51 Km 464 m 02:14:36 22.96 Km\h Tarmac sl 4
01/08/2015 Show to everybody fondo valle monzuno 70.12 Km 610 m 03:19:26 21.1 Km\h Tarmac sl 4
25/07/2015 Show to everybody Passo della Forchetta 77.88 Km 1328 m 03:43:04 20.95 Km\h Tarmac sl 4
24/07/2015 Show to everybody Monte zurrone 36.63 Km 870 m 02:51:37 12.81 Km\h Tarmac sl 4
23/07/2015 Show to everybody Forca Acero 81.81 Km 927 m 03:22:05 24.29 Km\h Tarmac sl 4
21/07/2015 Show to everybody fondo valle 64.93 Km 375 m 03:07:17 20.8 Km\h Tarmac sl 4
19/07/2015 Show to everybody raduno fondovalle 66.84 Km 417 m 02:48:50 23.75 Km\h Tarmac sl 4
18/07/2015 Show to everybody fornacebarbarolo 47.12 Km 364 m 02:07:08 22.24 Km\h Tarmac sl 4
12/07/2015 Show to everybody raduno 57.84 Km 0 m 02:25:14 23.9 Km\h Tarmac sl 4
11/07/2015 Show to everybody Raticosa 62.12 Km 0 m 03:44:53 16.57 Km\h Tarmac sl 4
05/07/2015 Show to everybody pianoro botteghino zena 51.92 Km 0 m 02:30:00 20.77 Km\h Tarmac sl 4
04/07/2015 Show to everybody vignale lungo fiume 28.38 Km 0 m 02:03:01 13.84 Km\h Tarmac sl 4
30/06/2015 Show to everybody bologna cervia 103.89 Km 0 m 03:59:02 26.08 Km\h Tarmac sl 4
28/06/2015 Show to everybody Monte pastore ca bortolani 78.2 Km 0 m 03:35:00 21.82 Km\h Tarmac sl 4
25/06/2015 Show to everybody Quinzano 61.1 Km 0 m 02:32:17 24.07 Km\h Tarmac sl 4
20/06/2015 Show to everybody vignale 36.7 Km 0 m 02:16:45 16.1 Km\h Tarmac sl 4
19/06/2015 Show to everybody zena 39.64 Km 0 m 01:34:11 25.25 Km\h Tarmac sl 4
13/06/2015 Show to everybody vignale 27.78 Km 0 m 02:03:53 13.45 Km\h Tarmac sl 4
09/06/2015 Show to everybody Fornace di Barbarolo 45.83 Km 0 m 01:51:53 24.58 Km\h Tarmac sl 4
06/06/2015 Show to everybody monte adone 54.08 Km 0 m 03:38:36 14.84 Km\h Tarmac sl 4
05/06/2015 Show to everybody lago castori 21.31 Km 0 m 00:52:45 24.24 Km\h Tarmac sl 4
31/05/2015 Show to everybody capanna gustavo 20.18 Km 0 m 01:54:33 10.57 Km\h Tarmac sl 4
30/05/2015 Show to everybody capoliveri 29.28 Km 0 m 02:56:30 9.95 Km\h Tarmac sl 4
29/05/2015 Show to everybody polveriera 38.84 Km 0 m 03:21:49 11.55 Km\h Tarmac sl 4
28/05/2015 Show to everybody miniere 27.38 Km 0 m 02:35:32 10.56 Km\h Tarmac sl 4
17/05/2015 Show to everybody imola bordona sasso leone imola 65.25 Km 0 m 03:10:40 20.53 Km\h Tarmac sl 4
10/05/2015 Show to everybody anzola san lorenzo in collina 64.38 Km 0 m 03:12:46 20.04 Km\h Tarmac sl 4
09/05/2015 Show to everybody liano 50.92 Km 0 m 02:34:29 19.78 Km\h Tarmac sl 4
07/05/2015 Show to everybody torre arabella 54.76 Km 0 m 02:16:31 24.07 Km\h Tarmac sl 4
05/05/2015 Show to everybody eremo botteghino 22.86 Km 0 m 01:49:43 12.5 Km\h Tarmac sl 4
03/05/2015 Show to everybody castel maggiore 62.35 Km 0 m 02:46:21 22.49 Km\h Tarmac sl 4
02/05/2015 Show to everybody Fondo valle Bibulano 69.97 Km 0 m 03:07:53 22.35 Km\h Tarmac sl 4
01/05/2015 Show to everybody giro 10 colli gormet 83.73 Km 0 m 03:33:20 23.55 Km\h Tarmac sl 4
26/04/2015 Show to everybody cime di romagna faenza 91.16 Km 0 m 04:35:44 19.84 Km\h Tarmac sl 4
21/04/2015 Show to everybody botteghino calanchi mercatale 27.34 Km 0 m 02:04:01 13.23 Km\h Tarmac sl 4
18/04/2015 Show to everybody eremo calanchi 23.46 Km 0 m 01:53:02 12.45 Km\h Tarmac sl 4
14/04/2015 Show to everybody noce 26.63 Km 0 m 01:37:55 16.32 Km\h Tarmac sl 4
12/04/2015 Show to everybody Buddrio Imola 81.85 Km 0 m 03:29:47 23.41 Km\h Tarmac sl 4
09/04/2015 Show to everybody Fornace 45.88 Km 0 m 01:48:29 25.37 Km\h Tarmac sl 4
07/04/2015 Show to everybody vignale e giro S Anna 39.7 Km 0 m 02:53:59 13.69 Km\h Tarmac sl 4
06/04/2015 Show to everybody dino 54.72 Km 0 m 02:21:00 23.28 Km\h Tarmac sl 4
03/04/2015 Show to everybody gaibola e calanchi 24.18 Km 0 m 02:11:44 11.01 Km\h Tarmac sl 4
02/04/2015 Show to everybody leoni 54.9 Km 0 m 03:52:31 14.17 Km\h Tarmac sl 4
31/03/2015 Show to everybody colli 1 46.99 Km 0 m 02:07:39 22.09 Km\h Tarmac sl 4
29/03/2015 Show to everybody portomaggiore 101.33 Km 0 m 03:54:00 25.98 Km\h Tarmac sl 4
28/03/2015 Show to everybody Fondovalle loiano monzuno 66.14 Km 0 m 03:09:41 20.92 Km\h Tarmac sl 4
23/03/2015 Show to everybody fornace 46.44 Km 0 m 01:54:59 24.23 Km\h Tarmac sl 4
21/03/2015 Show to everybody monte calderaro 52.56 Km 0 m 03:00:01 17.52 Km\h Tarmac sl 4
20/03/2015 Show to everybody giretto 24.17 Km 0 m 01:22:21 17.61 Km\h Tarmac sl 4
14/03/2015 Show to everybody monte rotondo 95.25 Km 0 m 04:41:11 20.32 Km\h Tarmac sl 4
13/03/2015 Show to everybody sasetta marsigliana 85.33 Km 0 m 04:10:48 20.41 Km\h Tarmac sl 4
08/03/2015 Show to everybody raduno castenaso 53.08 Km 179 m 02:31:43 20.99 Km\h Tarmac sl 4
07/03/2015 Show to everybody Barbarolo 58.98 Km 720 m 03:15:20 18.12 Km\h Tarmac sl 4
03/03/2015 Show to everybody Strad bianca 25.72 Km 124 m 01:36:24 16.01 Km\h Tarmac sl 4
01/03/2015 Show to everybody budrio fiorentina 60.33 Km 110 m 02:44:16 22.03 Km\h Tarmac sl 4
28/02/2015 Show to everybody quinzano 60.76 Km 683 m 02:53:24 21.02 Km\h Tarmac sl 4
27/02/2015 Show to everybody primo pezzo vignale 27.19 Km 303 m 01:49:21 14.92 Km\h Tarmac sl 4
23/02/2015 Show to everybody Via del Genio Sabbiuno 40.08 Km 476 m 02:44:58 14.58 Km\h Tarmac sl 4
21/02/2015 Show to everybody fagianometro 33.63 Km 435 m 02:09:55 15.53 Km\h Tarmac sl 4
17/02/2015 Show to everybody poggio piccolo liano 49.82 Km 459 m 02:21:36 21.11 Km\h Tarmac sl 4
10/02/2015 Show to everybody monte san pietro varignana 29.05 Km 355 m 01:53:48 15.32 Km\h Tarmac sl 4
31/01/2015 Show to everybody lungo fiume 22.94 Km 99 m 01:32:49 14.83 Km\h Tarmac sl 4
27/01/2015 Show to everybody Gaibola 18.01 Km 289 m 01:27:17 12.38 Km\h Tarmac sl 4
24/01/2015 Show to everybody Fagianometro 34 Km 386 m 02:01:58 16.73 Km\h Tarmac sl 4
18/01/2015 Show to everybody vignale mercatale 28.98 Km 409 m 02:03:53 14.04 Km\h Tarmac sl 4
10/01/2015 Show to everybody giretto 34.97 Km 474 m 02:51:25 12.24 Km\h Tarmac sl 4
06/01/2015 Show to everybody vignale 26.92 Km 315 m 01:54:07 14.15 Km\h Tarmac sl 4
04/01/2015 Show to everybody poggio 40.58 Km 130 m 01:54:27 21.27 Km\h Tarmac sl 4
03/01/2015 Show to everybody giro dei leoni 53.08 Km 646 m 03:52:19 13.71 Km\h Tarmac sl 4
02/01/2015 Show to everybody camionabile 24.87 Km 131 m 01:30:15 16.54 Km\h Tarmac sl 4
30/12/2014 Show to everybody vignale prima 26.99 Km 297 m 01:52:28 14.4 Km\h Tarmac sl 4
27/12/2014 Show to everybody eremo 16.2 Km 289 m 01:30:18 10.76 Km\h Tarmac sl 4
26/12/2014 Show to everybody san luca 38.07 Km 334 m 02:44:30 13.89 Km\h Tarmac sl 4
21/12/2014 Show to everybody vignale primo pezzo 26.69 Km 247 m 01:51:42 14.33 Km\h Tarmac sl 4
20/12/2014 Show to everybody Ca di co 50.78 Km 567 m 03:14:01 15.7 Km\h Tarmac sl 4
17/12/2014 Show to everybody Fagianometro e livergnano 51.75 Km 698 m 03:37:35 14.27 Km\h Tarmac sl 4
12/12/2014 Show to everybody ginestre brento 50.12 Km 557 m 03:23:29 14.78 Km\h Tarmac sl 4
08/12/2014 Show to everybody Vignale 37.12 Km 414 m 02:21:13 15.77 Km\h Tarmac sl 4
06/12/2014 Show to everybody fagianometro zula riosto 38.45 Km 572 m 02:32:51 15.09 Km\h Tarmac sl 4
04/12/2014 Show to everybody mercatale 20.28 Km 127 m 01:06:44 18.23 Km\h Tarmac sl 4
23/11/2014 Show to everybody Vignale 27.32 Km 337 m 01:49:02 15.03 Km\h Tarmac sl 4
22/11/2014 Show to everybody monte calvo e calanchi 28.06 Km 412 m 02:07:23 13.22 Km\h Tarmac sl 4
21/11/2014 Show to everybody camionabile 23.67 Km 124 m 01:18:35 18.08 Km\h Tarmac sl 4
18/11/2014 Show to everybody monte calvo rastignano 22.06 Km 388 m 01:39:09 13.35 Km\h Tarmac sl 4
16/11/2014 Show to everybody parchi giro 37.8 Km 624 m 02:57:52 12.75 Km\h Tarmac sl 4
15/11/2014 Show to everybody giro mtb 35.32 Km 261 m 02:06:47 16.72 Km\h Tarmac sl 4
04/11/2014 Show to everybody mercatale 23.42 Km 167 m 01:21:42 17.2 Km\h Tarmac sl 4
02/11/2014 Show to everybody Castel Guelfo 60.09 Km 192 m 02:40:20 22.49 Km\h Tarmac sl 4
01/11/2014 Show to everybody Pieve del Pino Anconella 50.13 Km 665 m 03:14:44 15.45 Km\h Tarmac sl 4
26/10/2014 Show to everybody Bazzano 72.91 Km 214 m 03:09:32 23.08 Km\h Tarmac sl 4
25/10/2014 Show to everybody Via del Genio e colli 43.16 Km 521 m 02:45:44 15.63 Km\h Tarmac sl 4
24/10/2014 Show to everybody Poggio piccolo 45.94 Km 128 m 01:49:08 25.26 Km\h Tarmac sl 4
21/10/2014 Show to everybody Fornace 45.47 Km 360 m 01:52:05 24.34 Km\h Tarmac sl 4
19/10/2014 Show to everybody Pianura 56.89 Km 74 m 02:27:42 23.11 Km\h Tarmac sl 4
17/10/2014 Show to everybody monte calvo 17.17 Km 302 m 01:47:37 9.57 Km\h Tarmac sl 4
14/10/2014 Show to everybody Gaibola 19.98 Km 268 m 01:36:10 12.47 Km\h Tarmac sl 4
10/10/2014 Show to everybody Mercatale 29.13 Km 144 m 02:00:21 14.52 Km\h Tarmac sl 4
07/10/2014 Show to everybody Poggio 40.12 Km 127 m 01:39:57 24.09 Km\h Tarmac sl 4
05/10/2014 Show to everybody Casaglia e giro dei colli 41.82 Km 510 m 02:30:39 16.66 Km\h Tarmac sl 4
02/10/2014 Show to everybody monte donato eremo di ronzano 34.79 Km 438 m 02:17:02 15.23 Km\h Tarmac sl 4
29/09/2014 Show to everybody caminabile 30.2 Km 148 m 01:52:32 16.1 Km\h Tarmac sl 4
28/09/2014 Show to everybody Poggio 52.4 Km 81 m 02:11:02 24 Km\h Tarmac sl 4
27/09/2014 Show to everybody Fagianometro 32.12 Km 356 m 02:15:38 14.21 Km\h Tarmac sl 4
25/09/2014 Show to everybody Castel Guelfo 50.88 Km 79 m 02:05:50 24.26 Km\h Tarmac sl 4
24/09/2014 Show to everybody Sabbiuno pieve del pino 43.87 Km 410 m 02:42:05 16.24 Km\h Tarmac sl 4
23/09/2014 Show to everybody Arabella 50.52 Km 481 m 02:11:38 23.03 Km\h Tarmac sl 4
21/09/2014 Show to everybody gran fondo dell uva 56.17 Km 455 m 02:34:04 21.87 Km\h Tarmac sl 4
15/09/2014 Show to everybody Fornace 45.68 Km 388 m 01:48:10 25.34 Km\h Tarmac sl 4
14/09/2014 Show to everybody toscanella 54.09 Km 184 m 02:12:08 24.56 Km\h Tarmac sl 4
09/09/2014 Show to everybody quinzano 60.84 Km 673 m 02:39:55 22.83 Km\h Tarmac sl 4
07/09/2014 Show to everybody poggio 57.35 Km 130 m 02:36:57 21.93 Km\h Tarmac sl 4
06/09/2014 Show to everybody fondo valle monzuno 72.41 Km 678 m 03:21:38 21.55 Km\h Tarmac sl 4
26/05/2014 Show to everybody Ripe basse 25.31 Km 444 m 01:56:56 12.99 Km\h Tarmac sl 4
17/05/2014 Show to everybody Castel Guelfo 59.99 Km 170 m 02:47:58 21.43 Km\h Tarmac sl 4
11/05/2014 Show to everybody Giro di romagna 92.67 Km 773 m 03:50:02 24.17 Km\h Tarmac sl 4
06/04/2014 Show to everybody Buddrio Imola 79.87 Km 165 m 03:15:56 24.46 Km\h Tarmac sl 4
07/01/2014 Show to everybody Gaibola Eremo 16.02 Km 277 m 01:02:40 15.34 Km\h Tarmac sl 4
06/01/2014 Show to everybody Vignale 35.98 Km 343 m 02:10:56 16.49 Km\h Tarmac sl 4
01/01/2014 Show to everybody Centro di Bologna 28.55 Km 67 m 02:08:49 13.3 Km\h Tarmac sl 4
31/12/2013 Show to everybody Giro dei parchi 36.28 Km 676 m 03:14:11 11.21 Km\h Tarmac sl 4
28/12/2013 Show to everybody Poggio Piccolo 42.07 Km 81 m 01:43:15 24.45 Km\h Tarmac sl 4
22/12/2013 Show to everybody Colli e San luca 39.76 Km 545 m 02:49:55 14.04 Km\h Tarmac sl 4
19/12/2013 Show to everybody Poggio 40.57 Km 92 m 01:36:37 25.19 Km\h Tarmac sl 4
17/12/2013 Show to everybody Vignale 33.95 Km 307 m 02:01:37 16.75 Km\h Tarmac sl 4
16/12/2013 Show to everybody Gaibola Eremo 18.07 Km 322 m 01:22:01 13.22 Km\h Tarmac sl 4
13/12/2013 Show to everybody Lungo Fiume 23.97 Km 71 m 01:17:00 18.68 Km\h Tarmac sl 4
10/12/2013 Show to everybody Prima parte Vignale 25.36 Km 280 m 01:25:13 17.86 Km\h Tarmac sl 4
05/12/2013 Show to everybody Poggio Piccolo 42.11 Km 78 m 01:45:38 23.92 Km\h Tarmac sl 4
03/12/2013 Show to everybody Camionabile 24.15 Km 118 m 01:24:36 17.13 Km\h Tarmac sl 4
01/12/2013 Show to everybody Ponticella Gaibola 29.9 Km 504 m 02:22:38 12.58 Km\h Tarmac sl 4
29/11/2013 Show to everybody Purnaro Budrio 29.97 Km 66 m 01:15:55 23.69 Km\h Tarmac sl 4
19/11/2013 Show to everybody Camionabile 23.91 Km 133 m 01:26:02 16.67 Km\h Tarmac sl 4
17/11/2013 Show to everybody Vignale 35.91 Km 309 m 02:07:27 16.9 Km\h Tarmac sl 4
09/11/2013 Show to everybody Lungo Fiume 37.85 Km 126 m 02:19:14 16.31 Km\h Tarmac sl 4
07/11/2013 Show to everybody castel guelfo 22.22 Km 363 m 01:30:45 14.69 Km\h Tarmac sl 4
07/11/2013 Show to everybody Gaibola Eremo 22.22 Km 363 m 01:30:45 14.69 Km\h Tarmac sl 4
06/11/2013 Show to everybody Camionabile 23.62 Km 126 m 01:19:30 17.83 Km\h Tarmac sl 4
03/11/2013 Show to everybody Eremo 21.07 Km 262 m 01:30:28 13.97 Km\h Tarmac sl 4
02/11/2013 Show to everybody Camionabile 25.22 Km 231 m 01:45:34 14.33 Km\h Tarmac sl 4
01/11/2013 Show to everybody Lungo Fiume 32.36 Km 97 m 02:20:07 13.86 Km\h Tarmac sl 4
29/10/2013 Show to everybody Poggio Piccolo 40.22 Km 68 m 01:31:10 26.47 Km\h Tarmac sl 4
25/10/2013 Show to everybody Camionabile 29.05 Km 148 m 01:28:03 19.8 Km\h Tarmac sl 4
20/10/2013 Show to everybody Fondo valle bivio Monzuno 69.05 Km 397 m 02:58:05 23.26 Km\h Tarmac sl 4
19/10/2013 Show to everybody colline ozzano 39.08 Km 411 m 02:44:30 14.25 Km\h Tarmac sl 4
18/10/2013 Show to everybody Castel Guelfo 52.34 Km 87 m 01:58:10 26.58 Km\h Tarmac sl 4
16/10/2013 Show to everybody Lungo Fiume 37.9 Km 161 m 02:18:38 16.41 Km\h Tarmac sl 4
13/10/2013 Show to everybody Gran Fondo Mantova 92.06 Km 60 m 03:20:23 27.56 Km\h Tarmac sl 4
04/10/2013 Show to everybody giro tranquillo 26.76 Km 275 m 01:34:43 16.95 Km\h Tarmac sl 4
01/10/2013 Show to everybody Monte Bibele 60.19 Km 535 m 02:32:56 23.61 Km\h Tarmac sl 4
28/09/2013 Show to everybody Eremo e calanchi 32.55 Km 428 m 02:17:04 14.25 Km\h Tarmac sl 4
27/09/2013 Show to everybody Lungo Fiume 33.15 Km 123 m 01:50:10 18.06 Km\h Tarmac sl 4
22/09/2013 Show to everybody BivioTorre Arabella 52.16 Km 276 m 02:12:52 23.55 Km\h Tarmac sl 4
21/09/2013 Show to everybody Eremo Botteghino 28.58 Km 308 m 01:45:58 16.18 Km\h Tarmac sl 4
19/09/2013 Show to everybody Barbarolo 58.06 Km 656 m 02:35:53 22.35 Km\h Tarmac sl 4
17/09/2013 Show to everybody Zena 40.21 Km 223 m 01:40:23 24.03 Km\h Tarmac sl 4
15/09/2013 Show to everybody Gran Fondo dell\`uva 52.36 Km 357 m 02:27:41 21.27 Km\h Tarmac sl 4
14/09/2013 Show to everybody Il Fiume 40.96 Km 121 m 02:32:51 16.08 Km\h Tarmac sl 4
13/09/2013 Show to everybody Quinzano 62.35 Km 557 m 02:41:40 23.14 Km\h Tarmac sl 4
10/09/2013 Show to everybody dozza monte del re km 57 373510102 56.93 Km 405 m 02:43:58 20.83 Km\h Tarmac sl 4
08/09/2013 Show to everybody raduno buddrio km 51,84_372464373 51.81 Km 80 m 02:09:17 24.04 Km\h Tarmac sl 4
07/09/2013 Show to everybody Montecatone 76.03 Km 419 m 03:18:27 22.99 Km\h Tarmac sl 4
03/09/2013 Show to everybody Allenamento 03-09-2013 alle 12:50:49.000 40.58 Km 239 m 01:36:15 25.3 Km\h Tarmac sl 4
01/09/2013 Show to everybody Zula Fornace 53.29 Km 437 m 02:26:19 21.85 Km\h Tarmac sl 4
31/08/2013 Show to everybody Toscanella 54.07 Km 106 m 02:07:50 25.38 Km\h Tarmac sl 4
17/08/2013 Show to everybody Allenamento 17-08-2013 alle 05:58:56.000 73.57 Km 722 m 03:18:03 22.29 Km\h Tarmac sl 4
15/08/2013 Show to everybody fornace km 45 359168294 45.99 Km 265 m 01:50:02 25.08 Km\h Tarmac sl 4
11/08/2013 Show to everybody Allenamento 11-08-2013 alle 05:56:35.000 60.2 Km 503 m 02:33:02 23.6 Km\h Tarmac sl 4
10/08/2013 Show to everybody Allenamento 10-08-2013 alle 06:13:04.000 31.46 Km 149 m 01:20:56 23.32 Km\h Tarmac sl 4
07/08/2013 Show to everybody Allenamento 07-08-2013 alle 12:36:50.000 19.88 Km 332 m 01:36:46 12.33 Km\h Tarmac sl 4
04/08/2013 Show to everybody Allenamento 04-08-2013 alle 05:09:31.000 102.34 Km 502 m 04:04:52 25.08 Km\h Tarmac sl 4
03/08/2013 Show to everybody Allenamento 03-08-2013 alle 05:57:42.000 62.06 Km 551 m 02:30:52 24.68 Km\h Tarmac sl 4
30/07/2013 Show to everybody Allenamento 30-07-2013 alle 13:26:40.000 39.93 Km 396 m 01:46:55 22.41 Km\h Tarmac sl 4
28/07/2013 Show to everybody Allenamento 28-07-2013 alle 05:46:58.000 47.33 Km 230 m 01:54:53 24.72 Km\h Tarmac sl 4
27/07/2013 Show to everybody Allenamento 27-07-2013 alle 05:36:07.000 62.06 Km 559 m 02:48:16 22.13 Km\h Tarmac sl 4
25/07/2013 Show to everybody Allenamento 25-07-2013 alle 05:44:45.000 63.91 Km 569 m 02:47:13 22.93 Km\h Tarmac sl 4
23/07/2013 Show to everybody Allenamento 23-07-2013 alle 06:03:41.000 51.96 Km 416 m 02:18:21 22.53 Km\h Tarmac sl 4
21/07/2013 Show to everybody Allenamento 21-07-2013 alle 05:39:43.000 75.37 Km 459 m 03:10:09 23.78 Km\h Tarmac sl 4
19/07/2013 Show to everybody Allenamento 19-07-2013 alle 13:35:16.000 54.2 Km 396 m 02:13:56 24.28 Km\h Tarmac sl 4
17/07/2013 Show to everybody Allenamento 17-07-2013 alle 13:52:43.000 49.95 Km 286 m 02:01:59 24.57 Km\h Tarmac sl 4
14/07/2013 Show to everybody Allenamento 14-07-2013 alle 05:40:17.000 62.92 Km 125 m 02:34:02 24.51 Km\h Tarmac sl 4
13/07/2013 Show to everybody Allenamento 13-07-2013 alle 05:41:11.000 29.95 Km 442 m 02:18:30 12.97 Km\h Tarmac sl 4
12/07/2013 Show to everybody Allenamento 12-07-2013 alle 13:10:45.000 39.86 Km 254 m 01:35:40 25 Km\h Tarmac sl 4
11/07/2013 Show to everybody Allenamento 11-07-2013 alle 14:40:09.000 16.05 Km 272 m 01:17:20 12.45 Km\h Tarmac sl 4
09/07/2013 Show to everybody Allenamento 09-07-2013 alle 13:51:30.000 60.14 Km 513 m 02:30:07 24.04 Km\h Tarmac sl 4
07/07/2013 Show to everybody Allenamento 07-07-2013 alle 05:41:38.000 81.9 Km 141 m 03:22:13 24.3 Km\h Tarmac sl 4
06/07/2013 Show to everybody Allenamento 06-07-2013 alle 06:12:12.000 45.28 Km 295 m 01:53:48 23.87 Km\h Tarmac sl 4
29/06/2013 Show to everybody Allenamento 29-06-2013 alle 05:44:35.000 41.31 Km 437 m 03:11:11 12.96 Km\h Tarmac sl 4
26/06/2013 Show to everybody Allenamento 26-06-2013 alle 14:05:25.000 17.93 Km 313 m 01:17:16 13.93 Km\h Tarmac sl 4
23/06/2013 Show to everybody Allenamento 23-06-2013 alle 05:26:14.000 63.32 Km 457 m 03:01:43 20.91 Km\h Tarmac sl 4
22/06/2013 Show to everybody Allenamento 22-06-2013 alle 05:43:18.000 60.27 Km 323 m 02:34:16 23.44 Km\h Tarmac sl 4
20/06/2013 Show to everybody Allenamento 20-06-2013 alle 14:13:52.000 40.53 Km 314 m 01:43:39 23.46 Km\h Tarmac sl 4
16/06/2013 Show to everybody Allenamento 16-06-2013 alle 05:35:22.000 34.28 Km 127 m 01:39:52 20.59 Km\h Tarmac sl 4
13/06/2013 Show to everybody Allenamento 13-06-2013 alle 13:21:53.000 55.17 Km 437 m 02:21:42 23.36 Km\h Tarmac sl 4
12/06/2013 Show to everybody Allenamento 12-06-2013 alle 13:44:37.000 20.18 Km 386 m 01:33:33 12.94 Km\h Tarmac sl 4
08/06/2013 Show to everybody Allenamento 08-06-2013 alle 05:43:04.000 65.1 Km 338 m 02:37:04 24.87 Km\h Tarmac sl 4
07/06/2013 Show to everybody Allenamento 07-06-2013 alle 14:03:12.000 26.65 Km 79 m 01:56:44 13.7 Km\h Tarmac sl 4
04/06/2013 Show to everybody Allenamento 04-06-2013 alle 13:19:10.000 47 Km 293 m 01:53:19 24.89 Km\h Tarmac sl 4
28/05/2013 Show to everybody Allenamento 28-05-2013 alle 13:25:13.000 60.18 Km 540 m 02:29:15 24.19 Km\h Tarmac sl 4
26/05/2013 Show to everybody Allenamento 26-05-2013 alle 05:42:48.000 53.25 Km 270 m 02:23:16 22.3 Km\h Tarmac sl 4
25/05/2013 Show to everybody Allenamento 25-05-2013 alle 05:46:17.000 55.24 Km 114 m 02:11:16 25.25 Km\h Tarmac sl 4
22/05/2013 Show to everybody Allenamento 22-05-2013 alle 13:32:22.000 53.52 Km 452 m 02:20:30 22.86 Km\h Tarmac sl 4
21/05/2013 Show to everybody Allenamento 21-05-2013 alle 13:30:06.000 16.87 Km 54 m 00:58:10 17.4 Km\h Tarmac sl 4
19/05/2013 Show to everybody Allenamento 19-05-2013 alle 06:28:36.000 30.06 Km 80 m 01:24:23 21.37 Km\h Tarmac sl 4
18/05/2013 Show to everybody Allenamento 18-05-2013 alle 05:55:49.000 38 Km 233 m 01:36:38 23.59 Km\h Tarmac sl 4
14/05/2013 Show to everybody Allenamento 14-05-2013 alle 13:10:40.000 61.05 Km 550 m 02:36:32 23.4 Km\h Tarmac sl 4
12/05/2013 Show to everybody Allenamento 12-05-2013 alle 06:24:41.000 57.92 Km 347 m 02:29:02 23.32 Km\h Tarmac sl 4
09/05/2013 Show to everybody Allenamento 09-05-2013 alle 13:17:37.000 55.08 Km 463 m 02:19:48 23.64 Km\h Tarmac sl 4
05/05/2013 Show to everybody Allenamento 05-05-2013 alle 06:11:29.000 60.14 Km 526 m 03:03:11 19.7 Km\h Tarmac sl 4
03/05/2013 Show to everybody Allenamento 03-05-2013 alle 13:22:48.000 52.68 Km 431 m 02:16:36 23.14 Km\h Tarmac sl 4
28/04/2013 Show to everybody Allenamento 28-04-2013 alle 06:07:13.000 50.01 Km 406 m 02:27:31 20.34 Km\h Tarmac sl 4
25/04/2013 Show to everybody Allenamento 25-04-2013 alle 06:12:12.000 70.04 Km 256 m 03:08:36 22.28 Km\h Tarmac sl 4
20/04/2013 Show to everybody Allenamento 20-04-2013 alle 06:51:32.000 78.03 Km 1339 m 03:07:54 24.92 Km\h Tarmac sl 4
19/04/2013 Show to everybody Allenamento 19-04-2013 alle 07:55:02.000 72.7 Km 1027 m 04:46:32 15.22 Km\h Tarmac sl 4
16/04/2013 Show to everybody Allenamento 16-04-2013 alle 13:18:44.000 44.7 Km 496 m 02:13:07 20.15 Km\h Tarmac sl 4
14/04/2013 Show to everybody Allenamento 14-04-2013 alle 06:07:05.000 52.24 Km 156 m 02:33:16 20.45 Km\h Tarmac sl 4
11/04/2013 Show to everybody Allenamento 11-04-2013 alle 12:07:26.000 52.41 Km 246 m 02:11:03 24 Km\h Tarmac sl 4
07/04/2013 Show to everybody Allenamento 07-04-2013 alle 06:15:44.000 68.1 Km 124 m 02:52:41 23.66 Km\h Tarmac sl 4
06/04/2013 Show to everybody Allenamento 06-04-2013 alle 06:18:10.000 33.38 Km 362 m 02:14:38 14.88 Km\h Tarmac sl 4
04/04/2013 Show to everybody Allenamento 04-04-2013 alle 13:32:23.000 17.24 Km 251 m 01:09:39 14.85 Km\h Tarmac sl 4
03/04/2013 Show to everybody Allenamento 03-04-2013 alle 13:34:18.000 28.38 Km 122 m 01:15:31 22.55 Km\h Tarmac sl 4
23/03/2013 Show to everybody Allenamento 23-03-2013 alle 07:16:11.000 76.59 Km 195 m 03:05:29 24.78 Km\h Tarmac sl 4
21/03/2013 Show to everybody Allenamento 21-03-2013 alle 14:07:37.000 40.47 Km 145 m 01:38:53 24.56 Km\h Tarmac sl 4
19/03/2013 Show to everybody Allenamento 19-03-2013 alle 14:19:58.000 34.06 Km 194 m 01:25:55 23.78 Km\h Tarmac sl 4
17/03/2013 Show to everybody Allenamento 17-03-2013 alle 06:51:55.000 88.42 Km 20 m 03:08:58 28.08 Km\h Tarmac sl 4
16/03/2013 Show to everybody Allenamento 16-03-2013 alle 07:07:29.000 91.87 Km 143 m 03:46:42 24.32 Km\h Tarmac sl 4
12/03/2013 Show to everybody Allenamento 12-03-2013 alle 14:19:27.000 42.18 Km 69 m 01:33:03 27.2 Km\h Tarmac sl 4
10/03/2013 Show to everybody Allenamento 10-03-2013 alle 13:12:54.000 37.24 Km 231 m 01:41:30 22.02 Km\h Tarmac sl 4
04/03/2013 Show to everybody Allenamento 04-03-2013 alle 14:20:45.000 42.02 Km 65 m 01:32:41 27.2 Km\h Tarmac sl 4
28/02/2013 Show to everybody Allenamento 28-02-2013 alle 14:05:32.000 40.14 Km 61 m 01:39:28 24.21 Km\h Tarmac sl 4
26/02/2013 Show to everybody Allenamento 26-02-2013 alle 14:24:11.000 41.02 Km 102 m 01:34:35 26.02 Km\h Tarmac sl 4
25/02/2013 Show to everybody Allenamento 25-02-2013 alle 13:44:06.000 18.46 Km 220 m 01:07:26 16.43 Km\h Tarmac sl 4
19/02/2013 Show to everybody castel guelfo 51.1 Km 81 m 01:52:54 27.16 Km\h Tarmac sl 4
17/02/2013 Show to everybody Allenamento 17-02-2013 alle 07:33:15.000 60.43 Km 291 m 02:33:03 23.69 Km\h Tarmac sl 4
10/02/2013 Show to everybody Allenamento 10-02-2013 alle 07:25:23.000 34.27 Km 24 m 01:48:01 19.04 Km\h Tarmac sl 4
09/02/2013 Show to everybody Allenamento 09-02-2013 alle 07:41:43.000 23.07 Km 94 m 01:09:18 19.97 Km\h Tarmac sl 4
08/02/2013 Show to everybody Allenamento 08-02-2013 alle 14:20:40.000 41.8 Km 70 m 01:37:34 25.71 Km\h Tarmac sl 4
05/02/2013 Show to everybody Allenamento 05-02-2013 alle 14:24:12.000 42.99 Km 99 m 01:40:01 25.79 Km\h Tarmac sl 4
04/02/2013 Show to everybody Allenamento 04-02-2013 alle 14:18:06.000 41.64 Km 81 m 01:34:16 26.5 Km\h Tarmac sl 4
19/01/2013 Show to everybody Allenamento 19-01-2013 alle 07:40:43.000 36.07 Km 526 m 02:38:36 13.65 Km\h Tarmac sl 4
07/01/2013 Show to everybody Allenamento 07-01-2013 alle 14:12:01.000 42.22 Km 83 m 01:32:54 27.27 Km\h Tarmac sl 4
06/01/2013 Show to everybody Allenamento 06-01-2013 alle 07:31:00.000 60.01 Km 123 m 02:34:29 23.31 Km\h Tarmac sl 4
04/01/2013 Show to everybody Allenamento 04-01-2013 alle 12:04:33.000 52.39 Km 100 m 02:00:47 26.02 Km\h Tarmac sl 4

Show previous years trainings
This user's bikes.
Tarmac sl 4 498 23287.92 Km 198225 m 838:59:59 19.26 Km/h
roubex specialaz 0 0 Km 0 m 00:00:00 0 Km/h

459 points
Kilometers
0
Vertical gain
0
Rank:37

Watch ranking »

 

Bike name

Delete this bike?

Now you follow this users and you can compare your trainings

If you stop following this users you will not be able to compare your trainings with his


bdc-forum.it | 2012-2020 Training Camp v.1.0.15